Time;durP1;ratioP1;P1;durP2;ratioP2;P2;SDS_P1;SDS_P2;PMS_P1;PMS_P2;Temp;Humidity;BMP_temperature;BMP_pressure;BME280_temperature;BME280_humidity;BME280_pressure;Samples;Min_cycle;Max_cycle;Signal;HPM_P1;HPM_P2
2023/01/04 00:01:04;;;;;;;3.20;2.73;;;;;;;6.42;97.61;102189.41;5011274;28;20202;-73
2023/01/04 00:03:30;;;;;;;4.73;2.23;;;;;;;6.54;97.25;102188.44;5002237;28;20571;-73
2023/01/04 00:06:01;;;;;;;6.50;2.50;;;;;;;6.58;96.65;102187.81;5005295;28;20653;-74
2023/01/04 00:08:27;;;;;;;6.47;2.67;;;;;;;6.53;96.82;102180.72;5016047;28;20213;-73
2023/01/04 00:10:52;;;;;;;4.70;2.67;;;;;;;6.52;96.69;102173.88;5019081;28;20298;-73
2023/01/04 00:13:18;;;;;;;5.80;2.53;;;;;;;6.56;97.10;102169.06;5008496;28;20285;-73
2023/01/04 00:15:43;;;;;;;4.87;2.33;;;;;;;6.52;96.08;102167.13;5020130;28;20660;-73
2023/01/04 00:18:08;;;;;;;7.20;2.47;;;;;;;6.57;96.39;102159.75;5003677;28;20313;-73
2023/01/04 00:20:34;;;;;;;4.30;2.67;;;;;;;6.56;95.63;102155.44;5005061;28;20194;-74
2023/01/04 00:22:59;;;;;;;3.87;2.47;;;;;;;6.53;95.84;102153.63;5012839;28;20279;-73
2023/01/04 00:25:25;;;;;;;6.37;2.50;;;;;;;6.57;96.34;102142.81;5022180;28;20194;-73
2023/01/04 00:27:51;;;;;;;3.80;2.40;;;;;;;6.56;96.20;102138.53;4988929;28;20219;-74
2023/01/04 00:30:17;;;;;;;8.43;2.57;;;;;;;6.62;95.52;102115.06;4991101;28;20277;-73
2023/01/04 00:32:43;;;;;;;5.83;2.50;;;;;;;6.64;95.36;102116.06;5006550;28;20190;-74
2023/01/04 00:35:09;;;;;;;6.27;2.90;;;;;;;6.66;95.75;102106.81;5007338;28;20596;-74
2023/01/04 00:37:34;;;;;;;3.10;2.00;;;;;;;6.66;95.18;102094.09;5005666;28;20764;-73
2023/01/04 00:40:00;;;;;;;5.70;2.60;;;;;;;6.66;94.71;102092.44;5003153;28;20191;-74
2023/01/04 00:42:25;;;;;;;4.03;2.00;;;;;;;6.70;94.85;102076.56;5010372;28;20237;-74
2023/01/04 00:44:51;;;;;;;3.37;2.00;;;;;;;6.68;95.13;102067.94;5012558;28;20195;-74
2023/01/04 00:47:16;;;;;;;5.03;2.70;;;;;;;6.70;95.78;102065.47;5013066;28;20203;-73
2023/01/04 00:49:42;;;;;;;3.60;2.30;;;;;;;6.76;95.01;102071.78;5014157;28;20203;-74
2023/01/04 00:52:08;;;;;;;6.37;2.57;;;;;;;6.80;94.24;102085.53;5010748;28;20200;-73
2023/01/04 00:54:34;;;;;;;4.97;2.30;;;;;;;6.77;94.75;102068.44;5010738;28;20195;-74
2023/01/04 00:57:00;;;;;;;6.07;2.20;;;;;;;6.78;94.92;102067.63;5016025;28;20218;-73
2023/01/04 00:59:26;;;;;;;5.17;2.00;;;;;;;6.84;94.19;102062.00;4995892;28;20209;-73
2023/01/04 01:01:52;;;;;;;4.50;2.03;;;;;;;6.83;93.68;102053.53;5016312;28;20190;-74
2023/01/04 01:04:19;;;;;;;4.87;2.50;;;;;;;6.85;94.56;102046.81;5013366;28;20194;-74
2023/01/04 01:06:45;;;;;;;4.90;2.13;;;;;;;6.84;94.51;102031.47;5008323;28;20190;-74
2023/01/04 01:09:12;;;;;;;3.73;2.17;;;;;;;6.85;93.61;102028.13;5000949;28;20603;-74
2023/01/04 01:11:39;;;;;;;2.33;2.00;;;;;;;6.85;94.04;102020.47;5007029;28;20215;-73
2023/01/04 01:14:05;;;;;;;6.60;2.47;;;;;;;6.81;94.14;102014.34;5021122;28;20184;-74
2023/01/04 01:16:31;;;;;;;6.57;2.30;;;;;;;6.80;93.53;102012.63;5011370;28;20203;-74
2023/01/04 01:18:57;;;;;;;4.87;2.80;;;;;;;6.78;93.74;101998.06;4990006;28;20191;-73
2023/01/04 01:21:25;;;;;;;4.73;1.93;;;;;;;6.79;93.57;101999.81;5020301;28;20182;-74
2023/01/04 01:23:52;;;;;;;5.10;2.00;;;;;;;6.77;94.12;102002.25;5007327;28;20199;-74
2023/01/04 01:26:21;;;;;;;6.63;2.20;;;;;;;6.78;93.34;101991.28;5008101;28;20199;-74
2023/01/04 01:28:47;;;;;;;5.77;2.00;;;;;;;6.83;93.80;102000.06;5010325;28;20207;-74
2023/01/04 01:31:23;;;;;;;5.70;2.30;;;;;;;6.81;93.87;102001.63;5012601;28;20220;-74
2023/01/04 01:33:50;;;;;;;4.87;2.27;;;;;;;6.86;93.09;101996.81;5003884;28;20197;-74
2023/01/04 01:36:17;;;;;;;5.93;2.30;;;;;;;6.86;94.01;101995.13;5014872;28;20195;-73
2023/01/04 01:38:43;;;;;;;3.50;2.00;;;;;;;6.89;92.63;101985.09;5006298;28;20211;-74
2023/01/04 01:41:17;;;;;;;4.13;2.00;;;;;;;6.88;92.87;101978.28;5010284;28;20244;-73
2023/01/04 01:43:51;;;;;;;9.07;2.10;;;;;;;6.93;93.00;101973.41;4997659;28;21217;-73
2023/01/04 01:46:25;;;;;;;4.97;2.03;;;;;;;6.98;93.00;101977.06;5015130;28;20203;-73
2023/01/04 01:48:55;;;;;;;5.00;1.87;;;;;;;6.93;93.25;101969.19;5008099;28;20649;-74
2023/01/04 01:51:21;;;;;;;6.13;2.50;;;;;;;6.96;92.32;101964.25;5016126;28;20217;-73
2023/01/04 01:53:53;;;;;;;4.43;2.03;;;;;;;6.95;92.64;101964.19;5013339;28;20567;-73
2023/01/04 01:56:19;;;;;;;5.33;2.23;;;;;;;6.99;93.21;101969.50;5011747;28;20201;-74
2023/01/04 01:58:49;;;;;;;4.97;2.10;;;;;;;7.00;92.85;101966.16;5010157;28;20222;-73
2023/01/04 02:01:15;;;;;;;4.80;2.00;;;;;;;7.01;92.53;101942.44;5000808;28;20191;-73
2023/01/04 02:03:42;;;;;;;3.83;1.93;;;;;;;7.05;92.48;101943.50;5007750;28;20195;-73
2023/01/04 02:06:17;;;;;;;3.50;2.00;;;;;;;7.06;91.63;101935.94;5009484;28;20184;-73
2023/01/04 02:08:42;;;;;;;2.80;1.53;;;;;;;7.10;91.08;101922.53;4996459;28;20216;-73
2023/01/04 02:11:09;;;;;;;2.53;1.93;;;;;;;7.07;91.80;101926.59;4990565;28;20588;-74
2023/01/04 02:16:42;;;;;;;4.53;2.30;;;;;;;7.13;90.74;101915.06;5011583;28;20199;-74
2023/01/04 02:19:29;;;;;;;4.83;1.97;;;;;;;7.14;90.54;101904.06;5012883;28;20716;-73
2023/01/04 02:22:25;;;;;;;6.00;1.90;;;;;;;7.14;91.07;101903.22;5002429;28;20186;-73
2023/01/04 02:25:20;;;;;;;6.83;2.30;;;;;;;7.19;90.55;101878.84;5009544;28;20203;-73
2023/01/04 02:28:27;;;;;;;4.07;1.73;;;;;;;7.21;90.05;101861.94;4972161;28;20676;-74
2023/01/04 02:31:08;;;;;;;5.33;1.73;;;;;;;7.23;89.89;101866.31;5009394;28;20961;-74
2023/01/04 02:34:07;;;;;;;4.27;1.70;;;;;;;7.24;89.85;101850.22;5004752;28;20636;-74
2023/01/04 02:36:42;;;;;;;4.70;2.00;;;;;;;7.28;89.01;101849.59;4994475;28;20199;-73
2023/01/04 02:39:11;;;;;;;4.50;1.83;;;;;;;7.32;88.38;101838.75;5015087;28;20187;-74
2023/01/04 02:41:41;;;;;;;6.17;1.97;;;;;;;7.29;88.97;101846.25;4994621;28;20195;-73
2023/01/04 02:47:14;;;;;;;2.67;1.83;;;;;;;7.26;89.71;101833.38;5007798;28;20310;-74
2023/01/04 02:52:24;;;;;;;5.13;1.77;;;;;;;7.35;88.24;101815.09;5012354;28;20209;-74
2023/01/04 02:54:53;;;;;;;4.43;1.83;;;;;;;7.35;88.38;101798.16;5015873;28;20206;-74
2023/01/04 02:57:48;;;;;;;7.70;2.10;;;;;;;7.35;88.03;101782.84;5018074;28;20237;-73
2023/01/04 03:00:25;;;;;;;4.00;1.40;;;;;;;7.39;87.56;101764.38;5011125;28;20190;-74
2023/01/04 03:06:16;;;;;;;3.93;1.70;;;;;;;7.46;87.20;101752.78;5015212;28;20199;-73
2023/01/04 03:09:22;;;;;;;5.43;2.07;;;;;;;7.41;87.62;101747.47;5000298;28;20313;-73
2023/01/04 03:12:30;;;;;;;3.30;1.87;;;;;;;7.41;87.29;101742.38;5008538;28;20886;-74
2023/01/04 03:15:04;;;;;;;5.37;1.80;;;;;;;7.50;86.50;101726.63;4998158;28;20762;-74
2023/01/04 03:17:36;;;;;;;6.23;1.60;;;;;;;7.52;86.84;101712.31;5010579;28;20217;-74
2023/01/04 03:20:03;;;;;;;2.60;1.50;;;;;;;7.53;86.15;101704.72;5008192;28;20211;-73
2023/01/04 03:36:51;;;;;;;3.47;1.70;;;;;;;7.67;85.28;101651.81;5016604;28;20198;-73
2023/01/04 03:48:30;;;;;;;3.27;1.70;;;;;;;7.73;85.13;101619.81;4986820;28;20319;-74
2023/01/04 03:51:14;;;;;;;3.63;1.73;;;;;;;7.75;86.20;101610.56;5016827;28;20211;-73
2023/01/04 03:53:58;;;;;;;3.07;1.50;;;;;;;7.85;84.37;101607.59;5018689;28;20205;-73
2023/01/04 03:56:27;;;;;;;5.03;2.27;;;;;;;7.74;86.53;101588.41;4999589;28;20285;-73
2023/01/04 03:58:53;;;;;;;5.20;2.03;;;;;;;7.71;87.34;101590.84;5009257;28;20219;-73
2023/01/04 04:01:22;;;;;;;4.17;1.60;;;;;;;7.71;86.97;101567.91;5002615;28;20206;-73
2023/01/04 04:09:14;;;;;;;3.70;1.70;;;;;;;7.63;88.53;101550.53;5015960;28;20798;-73
2023/01/04 04:11:40;;;;;;;6.73;1.90;;;;;;;7.65;87.37;101560.00;5011582;28;20273;-73
2023/01/04 04:14:05;;;;;;;2.63;1.63;;;;;;;7.59;88.89;101543.56;5009150;28;20203;-74
2023/01/04 04:16:31;;;;;;;5.13;1.87;;;;;;;7.56;88.26;101541.75;4990935;28;20207;-73
2023/01/04 04:18:56;;;;;;;5.77;1.67;;;;;;;7.51;90.21;101537.31;5012871;28;20202;-73
2023/01/04 04:21:22;;;;;;;4.87;2.07;;;;;;;7.48;90.57;101538.03;5012954;28;20191;-74
2023/01/04 04:23:47;;;;;;;3.63;1.60;;;;;;;7.39;91.13;101530.00;5006107;28;20629;-74
2023/01/04 04:26:13;;;;;;;3.63;1.90;;;;;;;7.37;91.83;101512.91;5002782;28;20555;-74
2023/01/04 04:28:40;;;;;;;4.43;2.03;;;;;;;7.31;92.57;101526.25;5014980;28;20226;-74
2023/01/04 04:31:05;;;;;;;6.30;2.33;;;;;;;7.28;92.26;101508.28;4995948;28;20578;-73
2023/01/04 04:33:31;;;;;;;3.43;1.97;;;;;;;7.25;94.04;101518.34;5001928;28;20194;-74
2023/01/04 04:35:56;;;;;;;2.63;1.83;;;;;;;7.19;94.13;101507.03;5015110;28;20560;-74
2023/01/04 04:38:22;;;;;;;6.17;2.47;;;;;;;7.13;95.12;101499.97;5024831;28;20352;-74
2023/01/04 04:43:33;;;;;;;7.57;2.13;;;;;;;7.04;96.78;101498.72;5008718;28;20267;-74
2023/01/04 04:46:00;;;;;;;5.00;2.50;;;;;;;7.04;96.57;101484.31;5019928;28;20187;-74
2023/01/04 04:48:25;;;;;;;6.90;2.60;;;;;;;7.01;97.44;101488.41;4977803;28;20219;-74
2023/01/04 04:50:51;;;;;;;5.50;2.73;;;;;;;7.03;97.62;101481.69;5001436;28;20278;-74
2023/01/04 04:53:16;;;;;;;6.17;2.80;;;;;;;6.98;97.62;101471.31;5004480;28;20290;-74
2023/01/04 04:55:42;;;;;;;4.23;2.30;;;;;;;6.96;98.60;101482.25;4994262;28;20205;-73
2023/01/04 04:58:07;;;;;;;5.60;2.27;;;;;;;6.96;98.62;101467.81;4992456;28;20215;-74
2023/01/04 05:00:33;;;;;;;3.97;2.20;;;;;;;6.92;99.30;101473.63;5009264;28;20221;-74
2023/01/04 05:02:59;;;;;;;6.00;2.53;;;;;;;6.87;100.00;101446.22;5016954;28;20195;-74
2023/01/04 05:05:25;;;;;;;5.43;2.83;;;;;;;6.88;100.00;101446.28;5017293;28;20748;-74
2023/01/04 05:07:50;;;;;;;5.13;2.53;;;;;;;6.87;100.00;101428.38;4997389;28;20331;-74
2023/01/04 05:10:16;;;;;;;5.13;2.27;;;;;;;6.85;100.00;101415.59;4990993;28;20313;-74
2023/01/04 05:13:00;;;;;;;8.17;3.10;;;;;;;6.83;100.00;101412.13;5021366;28;20191;-74
2023/01/04 05:15:32;;;;;;;4.43;2.83;;;;;;;6.84;100.00;101407.88;5007047;28;20667;-74
2023/01/04 05:17:58;;;;;;;7.63;2.90;;;;;;;6.83;100.00;101389.22;5009591;28;20297;-74
2023/01/04 05:20:24;;;;;;;6.97;2.73;;;;;;;6.83;100.00;101381.59;5004558;28;20277;-74
2023/01/04 05:22:50;;;;;;;5.37;2.90;;;;;;;6.84;100.00;101368.03;4984998;28;20194;-74
2023/01/04 05:25:16;;;;;;;4.63;2.47;;;;;;;6.83;100.00;101389.22;5021014;28;20194;-74
2023/01/04 05:27:42;;;;;;;10.63;3.03;;;;;;;6.82;100.00;101369.63;5000267;28;20579;-74
2023/01/04 05:32:54;;;;;;;5.93;2.63;;;;;;;6.84;100.00;101357.88;5012398;28;20202;-74
2023/01/04 05:35:19;;;;;;;6.17;3.13;;;;;;;6.83;100.00;101352.72;5019700;28;20191;-74
2023/01/04 05:37:44;;;;;;;4.70;2.67;;;;;;;6.86;100.00;101343.50;5022523;28;20215;-74
2023/01/04 05:40:10;;;;;;;5.93;3.40;;;;;;;6.85;100.00;101351.09;5019067;28;20562;-74
2023/01/04 05:42:36;;;;;;;4.40;2.73;;;;;;;6.86;100.00;101343.50;5002283;28;20203;-74
2023/01/04 05:45:01;;;;;;;6.33;2.77;;;;;;;6.87;100.00;101324.03;5015364;28;20198;-74
2023/01/04 05:47:27;;;;;;;9.10;3.10;;;;;;;6.87;100.00;101322.34;4998233;28;20246;-74
2023/01/04 05:49:53;;;;;;;4.27;2.53;;;;;;;6.90;100.00;101311.41;4997093;28;20586;-74
2023/01/04 05:52:19;;;;;;;8.03;3.40;;;;;;;6.90;100.00;101316.50;4996381;28;20234;-74
2023/01/04 05:54:44;;;;;;;7.33;3.10;;;;;;;6.92;100.00;101302.19;4989326;28;20599;-75
2023/01/04 05:57:10;;;;;;;6.37;2.97;;;;;;;6.93;100.00;101297.16;5023826;28;20217;-74
2023/01/04 05:59:36;;;;;;;5.03;2.70;;;;;;;6.93;100.00;101292.06;5016891;28;20195;-74
2023/01/04 06:02:02;;;;;;;6.10;2.90;;;;;;;6.95;100.00;101284.50;5003070;28;20263;-74
2023/01/04 06:04:27;;;;;;;7.10;2.87;;;;;;;6.95;100.00;101284.50;4998784;28;20210;-74
2023/01/04 06:06:53;;;;;;;4.50;2.97;;;;;;;6.95;100.00;101282.81;5010184;28;20246;-74
2023/01/04 06:09:18;;;;;;;3.90;2.80;;;;;;;6.97;100.00;101275.25;5013242;28;20634;-74
2023/01/04 06:11:44;;;;;;;5.73;2.77;;;;;;;6.99;100.00;101271.94;5019352;28;20215;-74
2023/01/04 06:14:09;;;;;;;5.83;2.70;;;;;;;7.02;100.00;101264.44;5010686;28;20209;-74
2023/01/04 06:16:35;;;;;;;6.83;3.23;;;;;;;7.03;100.00;101263.63;5016458;28;20568;-74
2023/01/04 06:19:01;;;;;;;5.40;2.57;;;;;;;7.05;100.00;101261.16;4989437;28;20282;-74
2023/01/04 06:21:26;;;;;;;3.60;2.50;;;;;;;7.08;100.00;101253.63;5021593;28;20615;-74
2023/01/04 06:23:52;;;;;;;4.03;2.90;;;;;;;7.10;100.00;101249.47;4994340;28;20222;-74
2023/01/04 06:26:18;;;;;;;3.87;3.00;;;;;;;7.13;100.00;101249.56;5019078;28;20187;-74
2023/01/04 06:28:44;;;;;;;7.07;3.03;;;;;;;7.15;100.00;101240.34;5016602;28;20215;-74
2023/01/04 06:31:10;;;;;;;4.60;3.03;;;;;;;7.17;100.00;101231.06;5014748;28;20276;-74
2023/01/04 06:33:37;;;;;;;4.53;2.63;;;;;;;7.20;100.00;101226.97;4990945;28;20238;-74
2023/01/04 06:36:03;;;;;;;4.33;2.63;;;;;;;7.29;100.00;101224.78;4994328;28;20200;-73
2023/01/04 06:38:29;;;;;;;4.50;2.53;;;;;;;7.34;100.00;101218.19;5021750;28;20229;-74
2023/01/04 06:40:54;;;;;;;3.97;2.60;;;;;;;7.36;100.00;101215.66;4988083;28;20672;-74
2023/01/04 06:43:20;;;;;;;3.93;2.50;;;;;;;7.41;100.00;101209.09;5015275;28;20191;-73
2023/01/04 06:45:45;;;;;;;5.90;2.13;;;;;;;7.47;100.00;101202.53;5013949;28;20265;-74
2023/01/04 06:48:12;;;;;;;4.53;1.87;;;;;;;7.53;100.00;101204.44;5013441;28;20251;-74
2023/01/04 06:50:37;;;;;;;3.23;2.10;;;;;;;7.60;100.00;101201.31;5022187;28;20246;-73
2023/01/04 06:53:03;;;;;;;2.53;2.27;;;;;;;7.62;100.00;101186.94;5011255;28;20695;-73
2023/01/04 06:55:31;;;;;;;3.03;1.90;;;;;;;7.67;100.00;101176.13;5001975;28;20266;-74
2023/01/04 06:57:57;;;;;;;3.20;1.80;;;;;;;7.71;100.00;101180.53;4982209;28;20281;-73
2023/01/04 07:00:23;;;;;;;2.57;1.80;;;;;;;7.80;100.00;101175.75;4996023;28;20194;-73
2023/01/04 07:02:48;;;;;;;2.60;1.83;;;;;;;7.80;100.00;101167.22;5019019;28;20198;-74
2023/01/04 07:05:14;;;;;;;2.33;1.90;;;;;;;7.84;100.00;101164.81;5012498;28;20198;-74
2023/01/04 07:07:39;;;;;;;2.60;1.77;;;;;;;7.88;100.00;101155.63;5009114;28;20211;-74
2023/01/04 07:10:06;;;;;;;2.67;1.60;;;;;;;7.91;100.00;101146.38;4991390;28;20195;-74
2023/01/04 07:12:32;;;;;;;2.70;1.80;;;;;;;7.92;100.00;101154.91;4992408;28;20200;-74
2023/01/04 07:14:57;;;;;;;1.80;1.70;;;;;;;7.99;100.00;101146.66;5015504;28;20235;-74
2023/01/04 07:17:23;;;;;;;1.90;1.77;;;;;;;7.97;100.00;101136.41;5010638;28;20246;-74
2023/01/04 07:19:48;;;;;;;2.97;1.87;;;;;;;8.01;100.00;101134.84;5015735;28;20199;-74
2023/01/04 07:22:14;;;;;;;3.40;1.90;;;;;;;8.02;100.00;101132.31;5010362;28;20187;-74
2023/01/04 07:24:40;;;;;;;2.07;1.83;;;;;;;8.02;100.00;101134.03;5014798;28;20191;-73
2023/01/04 07:27:05;;;;;;;6.13;2.10;;;;;;;8.04;100.00;101119.63;5008430;28;20700;-73
2023/01/04 07:29:31;;;;;;;3.83;2.03;;;;;;;8.09;100.00;101120.63;5013456;28;20198;-74
2023/01/04 07:31:56;;;;;;;4.87;1.93;;;;;;;8.10;100.00;101115.59;5000221;28;20684;-73
2023/01/04 07:34:24;;;;;;;2.33;1.80;;;;;;;8.11;100.00;101101.19;5005188;28;20195;-74
2023/01/04 07:36:50;;;;;;;6.40;2.37;;;;;;;8.20;100.00;101098.94;5012777;28;20252;-73
2023/01/04 07:39:17;;;;;;;3.77;1.90;;;;;;;8.22;100.00;101104.97;5011154;28;20226;-74
2023/01/04 07:41:43;;;;;;;3.13;1.93;;;;;;;8.22;100.00;101102.41;5012192;28;20729;-74
2023/01/04 07:44:09;;;;;;;2.00;1.80;;;;;;;8.26;100.00;101097.47;4991217;28;20183;-74
2023/01/04 07:46:35;;;;;;;3.70;2.30;;;;;;;8.30;100.00;101101.84;4998491;28;20357;-74
2023/01/04 07:49:01;;;;;;;4.10;2.47;;;;;;;8.36;100.00;101093.53;4988815;28;20278;-74
2023/01/04 07:51:29;;;;;;;2.17;1.73;;;;;;;8.40;100.00;101088.59;5011749;28;20775;-74
2023/01/04 07:53:54;;;;;;;3.13;2.20;;;;;;;8.43;100.00;101098.03;5000082;28;20217;-74
2023/01/04 07:56:20;;;;;;;2.13;2.03;;;;;;;8.45;100.00;101087.03;5015024;28;20609;-74
2023/01/04 07:58:45;;;;;;;3.53;2.43;;;;;;;8.51;100.00;101081.25;4989468;28;20226;-74
2023/01/04 08:01:13;;;;;;;2.73;2.30;;;;;;;8.58;100.00;101083.19;5007680;28;20218;-74
2023/01/04 08:03:39;;;;;;;4.90;2.77;;;;;;;8.59;100.00;101080.69;5015379;28;20206;-74
2023/01/04 08:06:07;;;;;;;4.00;2.73;;;;;;;8.62;100.00;101077.34;4995490;28;20644;-74
2023/01/04 08:08:33;;;;;;;3.50;3.00;;;;;;;8.66;100.00;101077.47;5011187;28;20238;-73
2023/01/04 08:11:03;;;;;;;3.87;3.23;;;;;;;8.72;100.00;101075.13;5012676;28;20687;-74
2023/01/04 08:13:28;;;;;;;5.03;3.13;;;;;;;8.78;100.00;101077.00;4995181;28;20302;-74
2023/01/04 08:15:55;;;;;;;4.27;3.30;;;;;;;8.81;100.00;101077.94;5010409;28;20206;-74
2023/01/04 08:18:20;;;;;;;4.77;3.27;;;;;;;8.88;100.00;101074.75;5010738;28;20219;-74
2023/01/04 08:20:46;;;;;;;3.57;3.23;;;;;;;8.92;100.00;101079.13;5009514;28;20257;-73
2023/01/04 08:23:11;;;;;;;5.10;3.60;;;;;;;8.96;100.00;101075.88;4992301;28;20201;-73
2023/01/04 08:25:37;;;;;;;4.53;3.77;;;;;;;9.02;100.00;101077.72;4995339;28;20194;-74
2023/01/04 08:28:02;;;;;;;4.23;3.83;;;;;;;9.05;100.00;101080.34;4991829;28;20628;-73
2023/01/04 08:30:28;;;;;;;4.00;3.70;;;;;;;9.09;100.00;101077.06;5006897;28;20226;-74
2023/01/04 08:32:54;;;;;;;4.00;3.60;;;;;;;9.13;100.00;101078.91;5015937;28;20198;-74
2023/01/04 08:35:19;;;;;;;3.80;3.43;;;;;;;9.15;100.00;101078.13;5006797;28;20239;-74
2023/01/04 08:37:45;;;;;;;3.80;3.40;;;;;;;9.23;100.00;101058.78;5011242;28;20214;-74
2023/01/04 08:40:10;;;;;;;3.50;3.13;;;;;;;9.30;100.00;101070.03;5011586;28;20215;-73
2023/01/04 08:42:36;;;;;;;3.60;3.30;;;;;;;9.33;100.00;101055.66;5021088;28;20625;-73
2023/01/04 08:45:02;;;;;;;3.50;3.20;;;;;;;9.35;100.00;101053.97;5015232;28;20200;-74
2023/01/04 08:47:29;;;;;;;3.43;3.13;;;;;;;9.40;100.00;101052.41;4985416;28;20210;-74
2023/01/04 08:49:54;;;;;;;4.90;3.60;;;;;;;9.43;100.00;101049.06;5013428;28;20231;-73
2023/01/04 08:52:20;;;;;;;3.47;3.17;;;;;;;9.47;100.00;101046.66;4992790;28;20223;-74
2023/01/04 08:54:46;;;;;;;3.50;3.20;;;;;;;9.51;100.00;101047.59;5014982;28;20664;-74
2023/01/04 08:57:12;;;;;;;3.50;3.20;;;;;;;9.52;100.00;101039.97;4987757;28;20214;-74
2023/01/04 08:59:37;;;;;;;3.83;3.43;;;;;;;9.54;100.00;101043.44;5010588;28;20679;-74
2023/01/04 09:02:02;;;;;;;3.13;2.83;;;;;;;9.57;100.00;101047.75;5007412;28;20678;-74
2023/01/04 09:04:28;;;;;;;3.50;3.20;;;;;;;9.58;100.00;101037.56;5013983;28;20293;-74
2023/01/04 09:06:53;;;;;;;4.00;3.10;;;;;;;9.62;100.00;101038.50;4995715;28;20296;-74
2023/01/04 09:09:19;;;;;;;3.27;2.97;;;;;;;9.67;100.00;101039.53;5015685;28;20555;-74
2023/01/04 09:11:44;;;;;;;3.90;3.10;;;;;;;9.72;100.00;101033.69;5005559;28;20220;-74
2023/01/04 09:14:10;;;;;;;4.07;3.17;;;;;;;9.73;100.00;101021.78;5007518;28;20228;-74
2023/01/04 09:16:36;;;;;;;3.07;2.87;;;;;;;9.79;100.00;101029.59;5009931;28;20206;-74
2023/01/04 09:19:03;;;;;;;3.67;3.10;;;;;;;9.76;100.00;101029.50;4999258;28;20203;-73
2023/01/04 09:21:28;;;;;;;3.70;3.00;;;;;;;9.82;100.00;101027.97;4980965;28;20187;-74
2023/01/04 09:23:56;;;;;;;3.23;2.90;;;;;;;9.87;100.00;101031.50;5023529;28;20638;-72
2023/01/04 09:26:22;;;;;;;3.10;2.90;;;;;;;9.91;100.00;101019.69;5019604;28;20264;-74
2023/01/04 09:28:52;;;;;;;3.17;2.97;;;;;;;9.98;100.00;101019.88;4983208;28;20267;-74
2023/01/04 09:31:20;;;;;;;2.60;2.40;;;;;;;10.07;100.00;101014.13;5009976;28;20686;-74
2023/01/04 09:33:46;;;;;;;3.43;3.13;;;;;;;10.08;100.00;101010.72;4999777;28;20190;-74
2023/01/04 09:36:14;;;;;;;3.40;3.10;;;;;;;10.11;100.00;101006.56;5010103;28;20729;-73
2023/01/04 09:38:40;;;;;;;3.47;3.00;;;;;;;10.19;100.00;101002.47;5012802;28;20290;-74
2023/01/04 09:41:25;;;;;;;3.03;2.83;;;;;;;10.19;100.00;100993.97;4998869;28;20275;-73
2023/01/04 09:43:57;;;;;;;3.50;3.30;;;;;;;10.19;100.00;101006.75;4988967;28;20290;-73
2023/01/04 09:46:27;;;;;;;4.00;3.60;;;;;;;10.21;100.00;100998.28;5005358;28;20199;-74
2023/01/04 09:49:02;;;;;;;4.50;4.10;;;;;;;10.21;100.00;100997.41;5012868;28;20633;-74
2023/01/04 09:51:33;;;;;;;4.37;4.07;;;;;;;10.22;100.00;100994.88;5007951;28;20249;-74
2023/01/04 09:54:15;;;;;;;5.60;5.13;;;;;;;10.24;100.00;101000.94;4997055;28;20687;-75
2023/01/04 09:56:57;;;;;;;6.03;5.43;;;;;;;10.22;100.00;100987.22;4993553;28;20207;-74
2023/01/04 09:59:28;;;;;;;5.47;4.97;;;;;;;10.22;100.00;100986.34;5001554;28;20190;-74
2023/01/04 10:02:09;;;;;;;5.77;5.37;;;;;;;10.23;100.00;100971.03;5011717;28;20251;-75
2023/01/04 10:04:47;;;;;;;6.37;5.77;;;;;;;10.23;100.00;100986.38;5004351;28;20257;-75
2023/01/04 10:07:39;;;;;;;5.87;5.37;;;;;;;10.24;100.00;100965.09;4980668;28;20222;-74
2023/01/04 10:10:11;;;;;;;5.70;5.20;;;;;;;10.27;100.00;100974.53;4994425;28;20626;-74
2023/01/04 10:13:10;;;;;;;5.33;4.87;;;;;;;10.30;100.00;100967.78;5009513;28;20186;-75
2023/01/04 10:15:54;;;;;;;5.50;5.10;;;;;;;10.32;100.00;100962.69;5008274;28;20264;-75
2023/01/04 10:18:26;;;;;;;4.80;4.40;;;;;;;10.31;100.00;100955.81;5010513;28;20332;-75
2023/01/04 10:21:15;;;;;;;4.57;4.17;;;;;;;10.34;100.00;100958.47;4983520;28;20587;-75
2023/01/04 10:23:50;;;;;;;4.63;4.27;;;;;;;10.33;100.00;100938.84;5004691;28;20211;-75
2023/01/04 10:26:25;;;;;;;4.50;4.10;;;;;;;10.33;100.00;100943.94;4987424;28;20199;-75
2023/01/04 10:28:59;;;;;;;4.47;4.10;;;;;;;10.31;100.00;100953.28;5004261;28;20313;-74
2023/01/04 10:31:41;;;;;;;4.10;3.73;;;;;;;10.29;100.00;100949.81;4975068;28;20273;-75
2023/01/04 10:34:27;;;;;;;3.97;3.67;;;;;;;10.30;100.00;100944.75;5009740;28;20289;-74
2023/01/04 10:36:58;;;;;;;3.23;3.03;;;;;;;10.33;100.00;100939.69;5006564;28;20207;-74
2023/01/04 10:39:28;;;;;;;2.83;2.63;;;;;;;10.35;100.00;100947.41;4995361;28;20610;-74
2023/01/04 10:41:57;;;;;;;3.40;3.10;;;;;;;10.36;100.00;100928.63;5008995;28;21069;-74
2023/01/04 10:44:34;;;;;;;3.47;3.23;;;;;;;10.39;100.00;100931.28;4991258;28;20231;-74
2023/01/04 10:47:41;;;;;;;2.80;2.60;;;;;;;10.45;100.00;100929.72;5006456;28;20219;-74
2023/01/04 10:50:19;;;;;;;2.80;2.60;;;;;;;10.50;100.00;100910.19;4993818;28;20217;-73
2023/01/04 10:53:01;;;;;;;2.20;2.10;;;;;;;10.56;100.00;100917.13;5006712;28;20610;-74
2023/01/04 10:55:41;;;;;;;2.47;2.27;;;;;;;10.59;100.00;100912.06;5006253;28;20195;-74
2023/01/04 10:58:30;;;;;;;2.50;2.00;;;;;;;10.60;100.00;100919.78;4991124;28;20711;-74
2023/01/04 11:01:04;;;;;;;2.00;1.90;;;;;;;10.61;100.00;100902.72;5005018;28;20205;-74
2023/01/04 11:03:51;;;;;;;2.07;1.97;;;;;;;10.62;100.00;100902.78;4994431;28;20245;-74
2023/01/04 11:06:29;;;;;;;2.23;2.00;;;;;;;10.59;100.00;100905.25;4983947;28;20195;-75
2023/01/04 11:09:22;;;;;;;1.90;1.80;;;;;;;10.61;100.00;100895.06;4985092;28;20783;-74
2023/01/04 11:11:49;;;;;;;1.87;1.77;;;;;;;10.64;100.00;100895.13;5005003;28;20312;-74
2023/01/04 11:14:15;;;;;;;2.00;1.90;;;;;;;10.67;100.00;100882.34;4994702;28;20187;-74
2023/01/04 11:16:47;;;;;;;1.80;1.70;;;;;;;10.69;100.00;100880.72;5012721;28;20194;-74
2023/01/04 11:19:13;;;;;;;1.90;1.80;;;;;;;10.68;100.00;100887.50;4989076;28;20211;-74
2023/01/04 11:21:45;;;;;;;1.70;1.60;;;;;;;10.69;100.00;100878.16;5000198;28;20188;-74
2023/01/04 11:24:13;;;;;;;1.53;1.43;;;;;;;10.68;100.00;100869.59;5001421;28;20204;-74
2023/01/04 11:26:42;;;;;;;1.80;1.70;;;;;;;10.69;100.00;100867.91;4988673;28;20784;-74
2023/01/04 11:29:20;;;;;;;2.13;1.60;;;;;;;10.69;100.00;100875.59;4999729;28;20289;-74
2023/01/04 11:31:52;;;;;;;2.10;1.70;;;;;;;10.70;100.00;100875.59;4988093;28;20309;-74
2023/01/04 11:34:19;;;;;;;1.73;1.63;;;;;;;10.72;100.00;100868.81;5005523;28;20595;-75
2023/01/04 11:36:46;;;;;;;1.70;1.60;;;;;;;10.75;100.00;100866.31;5009598;28;20223;-74
2023/01/04 11:39:23;;;;;;;2.03;1.80;;;;;;;10.79;100.00;100857.00;5008231;28;20245;-74
2023/01/04 11:41:56;;;;;;;1.90;1.80;;;;;;;10.81;100.00;100871.56;5008205;28;20194;-74
2023/01/04 11:44:22;;;;;;;1.60;1.50;;;;;;;10.85;100.00;100855.41;4987014;28;20598;-74
2023/01/04 11:47:15;;;;;;;1.77;1.67;;;;;;;10.86;100.00;100851.13;5013454;28;20189;-74
2023/01/04 11:49:40;;;;;;;1.60;1.50;;;;;;;10.86;100.00;100859.69;5004484;28;20214;-74
2023/01/04 11:52:25;;;;;;;1.73;1.63;;;;;;;10.86;100.00;100846.00;5004799;28;20684;-74
2023/01/04 11:54:51;;;;;;;1.93;1.70;;;;;;;10.85;100.00;100847.72;5007940;28;20601;-74
2023/01/04 11:57:18;;;;;;;1.70;1.60;;;;;;;10.89;100.00;100841.81;4988487;28;20310;-74
2023/01/04 11:59:44;;;;;;;2.00;1.90;;;;;;;10.88;100.00;100849.47;4991386;28;20201;-74
2023/01/04 12:02:22;;;;;;;1.63;1.53;;;;;;;10.90;100.00;100843.53;4988380;28;20748;-74
2023/01/04 12:04:49;;;;;;;2.10;2.00;;;;;;;10.95;100.00;100846.16;5004388;28;20197;-73
2023/01/04 12:07:32;;;;;;;2.03;1.90;;;;;;;10.96;100.00;100832.56;5006712;28;20276;-74
2023/01/04 12:10:00;;;;;;;2.20;2.10;;;;;;;10.97;100.00;100835.13;4996044;28;20244;-74
2023/01/04 12:12:33;;;;;;;2.37;2.17;;;;;;;10.98;100.00;100830.88;5007728;28;20222;-73
2023/01/04 12:15:08;;;;;;;3.20;2.43;;;;;;;10.99;100.00;100842.84;5005027;28;20648;-74
2023/01/04 12:17:45;;;;;;;1.80;1.70;;;;;;;11.02;100.00;100836.06;5013570;28;20219;-75
2023/01/04 12:20:17;;;;;;;2.57;2.20;;;;;;;11.04;100.00;100831.84;4974316;28;20264;-75
2023/01/04 12:22:42;;;;;;;2.43;2.30;;;;;;;11.03;100.00;100831.81;5004686;28;20259;-75
2023/01/04 12:25:40;;;;;;;2.50;2.30;;;;;;;11.01;100.00;100820.69;5004996;28;20653;-74